Gulkana Airport
PAGK : now visible

Airfield :











YOU CAN JOIN US ON...

 
LOGIN :

Register | Disclaimer

   EN    FR    IT 

 









Legend :    VFR   Marginal VFR   IFR   Intensive IFR   Very Intensive IFR
Visi :
Ceiling :
>= 8 km
>= 3000ft
5 to 8 km
1000 to 3000 ft
1500m to 5 km
500 to 1000 ft
800 to 1500m
200 to 500 ft
< 800m
< 200 ft
Symbols :   Thunderstorms  Fog  Heavy snow  Heavy precipitations  Wind > 20 kt






- Airport Elevation : 1586 ft
- IATA code : GKN


PAGK - Gulkana

CURRENT METAR :
  • 242353Z AUTO 21003KT 10SM CLR 21/15 A3000 RMK AO2 SLP158 T02110150 10211 20178 57003 TSNO $

EXPIRED METARs :
  • 242253Z AUTO 22003KT 10SM CLR 21/14 A3001 RMK AO2 SLP160 T02060144 TSNO $
  • 242153Z AUTO 18003KT 10SM CLR 21/14 A3001 RMK AO2 SLP160 T02060144 TSNO $
  • 242053Z AUTO 17003KT 10SM CLR 20/14 A3001 RMK AO2 SLP159 T02000139 58004 TSNO $
  • 241953Z AUTO 00000KT 10SM CLR 20/13 A3002 RMK AO2 SLP160 T02000133 TSNO $

TAF PAGK
Valid from the 25 at 00:00 until the 26 at 00:00 UTC


242320Z 2500/2524 VRB02KT P6SM SCT060 BKN120 BKN200
FM250200 16010G18KT P6SM VCTS SCT060CB BKN100 BKN200
FM250700 17007KT P6SM VCSH SCT050 BKN080 OVC200
FM252000 17010G18KT P6SM SCT060 BKN120
PAZA FIR / North America



MET'MAP, your aeronautical weather chart ! - Copyright ORBIFLY December 2007 - Disclaimer

ORBIFLY MET'MAP TEAM :

Programming & Development : Alexandra Zaïnal
Original concept : Baudouin d'Aumeries
Technical & hardware support : Manuel Goepfert
Assistance : Marc-Olivier Méhu




SOURCES & CREDITS :

   NOAA       Earth
Advisory